»·PEaware :: N70EU KSBP-KRNO

N70EU :: KSBP-KRNO

FLIGHT INFORMATION

Flight Status: Arrived
Operator: Privately registered:
United States
More flights under this callsign
Pilot: Ricardo M. (29263)
Aircraft: BEECH AIRCRAFT SUPER KING AIR 350
(B350)
More flights by this aircraft type
Origin: KSBP San Luis Co Regl
United States
Destination: KRNO Reno/Tahoe Intl
United States
More flights between these airports :: More routes between these airports
Route: MQO T329 PRB T329 PXN V230 MVA V564 FMG
File this flight plan on PilotEdge
Remarks:
Altitude:
(Current/Filed)
24,000ft
Speed:
(Current/Filed)
250kts
Departed: 21-Aug-20 07:38 PM
Arrived: 21-Aug-20 08:59 PM
Distance/Time
Traveled:
259nm/1:20
Distance/Time
To Go:
Arrived

Flight Plot

Page will automatically refresh every two minutes.

Flight plan parsing failed; only flown route is shown


Map Options




Map Legend


Flown Route
Filed Route
Departure Airport
Arrival Airport
Navaid (VOR, NDB)
Fix

Horizontal Profiles

Position Reports

Time Latitude Longitude Heading Altitude Ground
Speed
21-Aug-20 19:18 35.238927 -120.641187 269 195ft 0kts
21-Aug-20 19:19 35.238927 -120.641187 269 195ft 0kts
21-Aug-20 19:20 35.238927 -120.641187 269 195ft 0kts
21-Aug-20 19:21 35.238927 -120.641187 269 195ft 0kts
21-Aug-20 19:22 35.238927 -120.641187 269 195ft 0kts
21-Aug-20 19:23 35.238927 -120.641187 270 195ft 0kts
21-Aug-20 19:24 35.238927 -120.641187 269 195ft 0kts
21-Aug-20 19:25 35.238927 -120.641187 269 195ft 0kts
21-Aug-20 19:26 35.238927 -120.641187 269 195ft 0kts
21-Aug-20 19:27 35.238927 -120.641187 269 195ft 0kts
21-Aug-20 19:28 35.238927 -120.641187 269 195ft 0kts
21-Aug-20 19:29 35.238592 -120.641221 136 196ft 5kts
21-Aug-20 19:30 35.237212 -120.638595 125 204ft 13kts
21-Aug-20 19:31 35.234858 -120.634505 124 219ft 12kts
21-Aug-20 19:32 35.233393 -120.632220 193 221ft 0kts
21-Aug-20 19:33 35.233322 -120.632242 196 220ft 0kts
21-Aug-20 19:34 35.233322 -120.632242 196 220ft 0kts
21-Aug-20 19:35 35.233268 -120.632265 203 220ft 0kts
21-Aug-20 19:36 35.233268 -120.632265 203 220ft 0kts
21-Aug-20 19:37 35.235349 -120.637367 305 207ft 77kts
21-Aug-20 19:38 35.252979 -120.671691 302 1583ft 153kts
21-Aug-20 19:39 35.281594 -120.721827 302 3328ft 184kts
21-Aug-20 19:40 35.311801 -120.772872 302 5413ft 187kts
21-Aug-20 19:41 35.358185 -120.781896 20 7272ft 201kts
21-Aug-20 19:42 35.414550 -120.754044 19 8012ft 248kts
21-Aug-20 19:43 35.478801 -120.722391 17 9848ft 204kts
21-Aug-20 19:44 35.528350 -120.698231 16 11232ft 208kts
21-Aug-20 19:45 35.582213 -120.671855 16 12686ft 210kts
21-Aug-20 19:46 35.637168 -120.644874 16 14055ft 213kts
21-Aug-20 19:47 35.693056 -120.630263 342 15369ft 202kts
21-Aug-20 19:48 35.748509 -120.643950 342 16632ft 204kts
21-Aug-20 19:49 35.804339 -120.656727 342 17923ft 206kts
21-Aug-20 19:50 35.861122 -120.669457 342 19264ft 208kts
21-Aug-20 19:51 35.918338 -120.682231 342 20640ft 210kts
21-Aug-20 19:52 35.976127 -120.695132 342 22062ft 212kts
21-Aug-20 19:53 36.034434 -120.708163 342 23520ft 214kts
21-Aug-20 19:54 36.097267 -120.722255 343 23897ft 248kts
21-Aug-20 19:55 36.168976 -120.738058 344 23888ft 269kts
21-Aug-20 19:56 36.244663 -120.754931 344 23884ft 282kts
21-Aug-20 19:57 36.322909 -120.772474 344 23882ft 290kts
21-Aug-20 19:58 36.403467 -120.781286 337 23895ft 288kts
21-Aug-20 19:59 36.483834 -120.791198 0 23891ft 304kts
21-Aug-20 20:00 36.569695 -120.782780 357 23884ft 313kts
21-Aug-20 20:01 36.657621 -120.780140 356 23880ft 319kts
21-Aug-20 20:02 36.746287 -120.769335 29 23902ft 331kts
21-Aug-20 20:03 36.779922 -120.668538 86 23890ft 328kts
21-Aug-20 20:04 36.786916 -120.554553 90 23890ft 330kts
21-Aug-20 20:05 36.783845 -120.441106 87 23895ft 331kts
21-Aug-20 20:06 36.799765 -120.327266 81 23890ft 334kts
21-Aug-20 20:07 36.819695 -120.213527 79 23889ft 335kts
21-Aug-20 20:08 36.859604 -120.109484 76 23903ft 334kts
21-Aug-20 20:09 36.903912 -120.007281 58 23893ft 338kts
21-Aug-20 20:10 36.952905 -119.906903 59 23886ft 339kts
21-Aug-20 20:11 37.002086 -119.805895 60 23880ft 339kts
21-Aug-20 20:12 37.051129 -119.704836 60 23875ft 338kts
21-Aug-20 20:13 37.104351 -119.609471 35 23874ft 338kts
21-Aug-20 20:14 37.181293 -119.541713 35 23870ft 336kts
21-Aug-20 20:15 37.254130 -119.468607 41 23927ft 333kts
21-Aug-20 20:16 37.319141 -119.387650 55 24097ft 326kts
21-Aug-20 20:17 37.382249 -119.305546 43 24241ft 327kts
21-Aug-20 20:18 37.451063 -119.230708 41 24310ft 329kts
21-Aug-20 20:19 37.521240 -119.156169 41 24311ft 331kts
21-Aug-20 20:20 37.592049 -119.080994 40 24311ft 333kts
21-Aug-20 20:21 37.662900 -119.005543 40 24312ft 333kts
21-Aug-20 20:22 37.733764 -118.929913 38 24312ft 334kts
21-Aug-20 20:23 37.811665 -118.879125 344 24321ft 310kts
21-Aug-20 20:24 37.889805 -118.915472 336 23016ft 301kts
21-Aug-20 20:25 37.968761 -118.950132 336 21531ft 301kts
21-Aug-20 20:26 38.047611 -118.985001 336 20049ft 301kts
21-Aug-20 20:27 38.126209 -119.019425 338 18566ft 301kts
21-Aug-20 20:28 38.205279 -119.054401 338 17060ft 301kts
21-Aug-20 20:29 38.282954 -119.088944 338 16206ft 287kts
21-Aug-20 20:30 38.360033 -119.123311 338 16179ft 301kts
21-Aug-20 20:31 38.440472 -119.159262 338 16111ft 310kts
21-Aug-20 20:32 38.522923 -119.196196 338 16049ft 315kts
21-Aug-20 20:33 38.605887 -119.233455 338 16026ft 315kts
21-Aug-20 20:34 38.688754 -119.270760 338 16027ft 315kts
21-Aug-20 20:35 38.771676 -119.308187 338 16027ft 315kts
21-Aug-20 20:36 38.854475 -119.345654 338 16028ft 316kts
21-Aug-20 20:37 38.937193 -119.383126 338 15931ft 313kts
21-Aug-20 20:38 39.019065 -119.420356 336 14431ft 309kts
21-Aug-20 20:39 39.099331 -119.456989 336 12937ft 304kts
21-Aug-20 20:40 39.178477 -119.493042 336 11414ft 300kts
21-Aug-20 20:41 39.256429 -119.528775 336 10004ft 291kts
21-Aug-20 20:42 39.326550 -119.560976 336 10002ft 251kts
21-Aug-20 20:44 39.394818 -119.592437 336 9996ft 265kts
21-Aug-20 20:45 39.463843 -119.624249 336 9980ft 260kts
21-Aug-20 20:46 39.533084 -119.638039 28 9976ft 270kts
21-Aug-20 20:47 39.554388 -119.551196 79 9972ft 250kts
21-Aug-20 20:48 39.534810 -119.471795 116 9414ft 233kts
21-Aug-20 20:49 39.548293 -119.413379 351 9250ft 175kts
21-Aug-20 20:50 39.576734 -119.459269 280 8471ft 190kts
21-Aug-20 20:51 39.559148 -119.526227 251 7755ft 186kts
21-Aug-20 20:52 39.545280 -119.587148 258 7672ft 175kts
21-Aug-20 20:53 39.533066 -119.648664 258 7596ft 176kts
21-Aug-20 20:54 39.520128 -119.711486 257 6603ft 174kts
21-Aug-20 20:55 39.527956 -119.752853 347 5844ft 110kts
21-Aug-20 20:56 39.562553 -119.752291 327 6569ft 127kts
21-Aug-20 20:57 39.532664 -119.766356 180 4952ft 134kts
21-Aug-20 20:58 39.501056 -119.766753 181 4405ft 55kts
21-Aug-20 20:58 39.497348 -119.765745 84 4403ft 0kts
21-Aug-20 21:00 39.497357 -119.765607 85 4402ft 0kts
21-Aug-20 21:01 39.498654 -119.764748 89 4402ft 0kts
21-Aug-20 21:02 39.498654 -119.764748 89 4402ft 0kts
21-Aug-20 21:03 39.498654 -119.764748 89 4402ft 0kts
21-Aug-20 21:03 39.498654 -119.764748 89 4402ft 0kts
21-Aug-20 21:05 39.498654 -119.764748 89 4402ft 0kts
21-Aug-20 21:05 39.498654 -119.764748 89 4402ft 0kts
21-Aug-20 21:06 39.498654 -119.764748 89 4402ft 0kts
21-Aug-20 21:08 39.498654 -119.764748 89 4402ft 0kts
21-Aug-20 21:08 39.498654 -119.764748 89 4402ft 0kts
21-Aug-20 21:09 39.498654 -119.764748 89 4402ft 0kts
21-Aug-20 21:10 39.498654 -119.764748 89 4402ft 0kts
21-Aug-20 21:11 39.498654 -119.764748 89 4402ft 0kts
21-Aug-20 21:12 39.498654 -119.764748 89 4402ft 0kts

Navigation Log

Ident Type
Flight plan parsing failed, navigation log unavailable